Hlavní strana
METAR-TAF:

METAR-TAF

Letiště :

Mezinárodní letiště Oděsa

Oděsa, Ukrajina

zeměpisná šířka: 46-26N, zeměpisná délka: 030-46E, výška: 42 m

Aktuální stav počasí

Zpráva byla vytvořena před 22 minutami, v 19:00 UTC
Bezvětří
Teplota 7°C
Vlhkost vzduchu 31%
Tlak 1035 hPa
Viditelnost 10 km a více
Žádná oblačnost pod 1500 m, nevyskytují se cumulonimby.

METAR: UKOO 061900Z 00000MPS CAVOK 07/M09 Q1035 R16/090060 NOSIG

Čas: 22:22 (19:22 UTC)

Předpověď počasí

Zpráva byla vytvořena před 2 hodinami a 11 minutami, v 17:11 UTC
Předpověď platná od 06 v 18 UTC do 07 v 18 UTC
Severní vítr 6 kt
Viditelnost: 6000 m
Polojasno ve výšce 1300 ft
Změna
od 07 v 07 UTC do 07 v 09 UTC
Východní vítr 10 kt s nárazy do 21 kt

TAF: UKOO 061711Z 0618/0718 01003MPS 6000 SCT013 TX14/0712Z TN04/0703Z BECMG 0707/0709 10005G11MPS

Stav a předpovědi počasí z více než 4 000 letišť (zprávy METAR a TAF).

Červené a žluté tečky na mapě představují dostupné meteorologické stanice.

Když kurzor umístíte na tečku, zobrazí se název stanice.

Pak kliknutím zobrazíte stav a předpověď počasí.

Chcete-li změnit mapu, kliknutím na zelené tlačítko se znaménkem +mapu přiblížíte, kliknutím na zelené tlačítko se znaménkem – mapu oddálíte a kliknutím na zelené šipky přejdete na sousední mapy.


METAR-TAF: